createdAt,value
2022-10-20T00:00:14.687Z,1002.13
2022-10-20T00:01:13.545Z,1002.13
2022-10-20T00:02:13.663Z,1002.12
2022-10-20T00:03:13.476Z,1002.12
2022-10-20T00:04:13.460Z,1002.10
2022-10-20T00:05:13.566Z,1002.08
2022-10-20T00:06:13.640Z,1002.06
2022-10-20T00:07:14.136Z,1002.05
2022-10-20T00:08:13.358Z,1002.06
2022-10-20T00:09:13.585Z,1002.07
2022-10-20T00:10:13.541Z,1001.99
2022-10-20T00:11:13.478Z,1002.01
2022-10-20T00:12:13.659Z,1002.05
2022-10-20T00:13:13.843Z,1002.05
2022-10-20T00:14:13.834Z,1002.08
2022-10-20T00:15:13.680Z,1002.12
2022-10-20T00:16:13.980Z,1002.13
2022-10-20T00:17:12.827Z,1002.17
2022-10-20T00:18:13.702Z,1002.12
2022-10-20T00:19:13.533Z,1002.13
2022-10-20T00:21:13.987Z,1002.07
2022-10-20T00:22:13.073Z,1002.04
2022-10-20T00:23:13.014Z,1002.01
2022-10-20T00:24:12.923Z,1001.95
2022-10-20T00:25:13.039Z,1001.97
2022-10-20T00:26:13.103Z,1001.97
2022-10-20T00:27:13.146Z,1001.94
2022-10-20T00:28:13.069Z,1001.93
2022-10-20T00:29:13.013Z,1001.93
2022-10-20T00:30:13.023Z,1001.91
2022-10-20T00:31:12.955Z,1001.88
2022-10-20T00:32:12.986Z,1001.87
2022-10-20T00:33:13.511Z,1001.87
2022-10-20T00:34:13.435Z,1001.87
2022-10-20T00:35:13.537Z,1001.85
2022-10-20T00:36:13.398Z,1001.80
2022-10-20T00:37:13.706Z,1001.82
2022-10-20T00:38:13.979Z,1001.76
2022-10-20T00:39:12.964Z,1001.71
2022-10-20T00:40:12.956Z,1001.69
2022-10-20T00:41:12.997Z,1001.65
2022-10-20T00:42:13.530Z,1001.69
2022-10-20T00:43:13.926Z,1001.65
2022-10-20T00:44:12.815Z,1001.70
2022-10-20T00:45:13.916Z,1001.63
2022-10-20T00:46:12.934Z,1001.62
2022-10-20T00:47:12.789Z,1001.60
2022-10-20T00:48:13.796Z,1001.57
2022-10-20T00:49:14.107Z,1001.56
2022-10-20T00:50:13.000Z,1001.56
2022-10-20T00:51:12.835Z,1001.57
2022-10-20T00:52:13.691Z,1001.53
2022-10-20T00:53:13.646Z,1001.50
2022-10-20T00:54:13.787Z,1001.52
2022-10-20T00:55:14.023Z,1001.46
2022-10-20T00:56:13.357Z,1001.41
2022-10-20T00:57:13.270Z,1001.37
2022-10-20T00:58:13.157Z,1001.34
2022-10-20T00:59:13.082Z,1001.30
2022-10-20T01:00:13.001Z,1001.31
2022-10-20T01:01:13.088Z,1001.26
2022-10-20T01:02:13.396Z,1001.26
2022-10-20T01:03:13.307Z,1001.25
2022-10-20T01:04:13.532Z,1001.28
2022-10-20T01:05:13.578Z,1001.20
2022-10-20T01:06:13.619Z,1001.20
2022-10-20T01:07:13.526Z,1001.17
2022-10-20T01:08:13.800Z,1001.18
2022-10-20T01:09:14.058Z,1001.15
2022-10-20T01:10:13.054Z,1001.17
2022-10-20T01:11:13.318Z,1001.14
2022-10-20T01:12:13.457Z,1001.14
2022-10-20T01:13:13.358Z,1001.15
2022-10-20T01:14:13.291Z,1001.14
2022-10-20T01:15:13.408Z,1001.07
2022-10-20T01:16:13.750Z,1001.08
2022-10-20T01:17:13.863Z,1001.07
2022-10-20T01:18:13.677Z,1001.07
2022-10-20T01:19:13.590Z,1001.07
2022-10-20T01:20:13.427Z,1001.09
2022-10-20T01:21:13.341Z,1001.06
2022-10-20T01:22:13.339Z,1001.04
2022-10-20T01:23:13.176Z,1001.07
2022-10-20T01:24:13.479Z,1001.09
2022-10-20T01:25:13.633Z,1001.12
2022-10-20T01:26:13.702Z,1001.12
2022-10-20T01:27:13.726Z,1001.18
2022-10-20T01:28:13.668Z,1001.15
2022-10-20T01:29:14.020Z,1001.10
2022-10-20T01:30:13.097Z,1001.07
2022-10-20T01:31:13.164Z,1001.01
2022-10-20T01:32:13.524Z,1000.99
2022-10-20T01:33:13.575Z,1000.98
2022-10-20T01:34:13.555Z,1000.87
2022-10-20T01:35:13.564Z,1000.84
2022-10-20T01:36:18.630Z,1000.86
2022-10-20T01:37:23.372Z,1000.85
2022-10-20T01:38:13.495Z,1000.83
2022-10-20T01:39:13.421Z,1000.81
2022-10-20T01:40:13.257Z,1000.79
2022-10-20T01:41:13.224Z,1000.77
2022-10-20T01:42:13.650Z,1000.69
2022-10-20T01:43:13.758Z,1000.65
2022-10-20T01:44:14.758Z,1000.61
2022-10-20T01:45:14.376Z,1000.57
2022-10-20T01:46:13.608Z,1000.49
2022-10-20T01:47:13.511Z,1000.54
2022-10-20T01:48:13.736Z,1000.47
2022-10-20T01:49:13.654Z,1000.50
2022-10-20T01:50:13.913Z,1000.50
2022-10-20T01:51:12.883Z,1000.50
2022-10-20T01:52:12.802Z,1000.50
2022-10-20T01:53:14.068Z,1000.47
2022-10-20T01:54:12.982Z,1000.52
2022-10-20T01:55:12.914Z,1000.52
2022-10-20T01:56:12.851Z,1000.50
2022-10-20T01:57:13.938Z,1000.50
2022-10-20T01:58:12.817Z,1000.49
2022-10-20T01:59:13.914Z,1000.50
2022-10-20T02:00:12.833Z,1000.50
2022-10-20T02:01:13.828Z,1000.46
2022-10-20T02:02:14.034Z,1000.46
2022-10-20T02:03:12.908Z,1000.43
2022-10-20T02:04:12.949Z,1000.42
2022-10-20T02:05:13.127Z,1000.36
2022-10-20T02:06:13.165Z,1000.35
2022-10-20T02:07:13.375Z,1000.37
2022-10-20T02:08:13.408Z,1000.34
2022-10-20T02:09:13.311Z,1000.29
2022-10-20T02:10:13.388Z,1000.32
2022-10-20T02:11:13.533Z,1000.24
2022-10-20T02:12:13.585Z,1000.24
2022-10-20T02:13:13.596Z,1000.21
2022-10-20T02:14:13.648Z,1000.22
2022-10-20T02:15:13.581Z,1000.23
2022-10-20T02:16:13.552Z,1000.17
2022-10-20T02:17:13.491Z,1000.17
2022-10-20T02:18:13.645Z,1000.16
2022-10-20T02:19:13.799Z,1000.14
2022-10-20T02:20:13.886Z,1000.15
2022-10-20T02:21:12.891Z,1000.14
2022-10-20T02:22:12.953Z,1000.13
2022-10-20T02:23:13.157Z,1000.13
2022-10-20T02:24:13.102Z,1000.09
2022-10-20T02:25:13.066Z,1000.08
2022-10-20T02:26:12.881Z,1000.06
2022-10-20T02:27:13.888Z,1000.03
2022-10-20T02:28:14.163Z,1000.06
2022-10-20T02:29:13.280Z,1000.05
2022-10-20T02:30:13.525Z,1000.01
2022-10-20T02:31:13.947Z,999.99
2022-10-20T02:32:13.060Z,999.94
2022-10-20T02:33:14.140Z,999.95
2022-10-20T02:34:13.493Z,999.94
2022-10-20T02:35:13.706Z,999.99
2022-10-20T02:36:13.787Z,999.96
2022-10-20T02:37:14.277Z,999.98
2022-10-20T02:38:13.343Z,1000.02
2022-10-20T02:39:13.180Z,999.99
2022-10-20T02:40:13.154Z,1000.02
2022-10-20T02:41:13.702Z,999.96
2022-10-20T02:42:14.328Z,999.94
2022-10-20T02:43:13.230Z,999.93
2022-10-20T02:44:13.287Z,999.93
2022-10-20T02:45:13.250Z,999.89
2022-10-20T02:46:13.321Z,999.84
2022-10-20T02:47:13.288Z,999.79
2022-10-20T02:48:13.268Z,999.75
2022-10-20T02:49:13.309Z,999.71
2022-10-20T02:50:13.263Z,999.66
2022-10-20T02:51:13.228Z,999.68
2022-10-20T02:52:13.259Z,999.65
2022-10-20T02:53:13.270Z,999.69
2022-10-20T02:54:13.146Z,999.69
2022-10-20T02:55:13.051Z,999.71
2022-10-20T02:56:13.480Z,999.70
2022-10-20T02:57:13.723Z,999.71
2022-10-20T02:58:13.757Z,999.68
2022-10-20T02:59:13.981Z,999.69
2022-10-20T03:00:12.921Z,999.70
2022-10-20T03:01:13.398Z,999.67
2022-10-20T03:02:13.737Z,999.64
2022-10-20T03:03:13.890Z,999.62
2022-10-20T03:04:14.214Z,999.62
2022-10-20T03:05:13.089Z,999.66
2022-10-20T03:06:13.001Z,999.62
2022-10-20T03:07:13.021Z,999.61
2022-10-20T03:08:13.002Z,999.60
2022-10-20T03:09:12.943Z,999.54
2022-10-20T03:10:12.856Z,999.55
2022-10-20T03:11:13.688Z,999.54
2022-10-20T03:12:13.924Z,999.55
2022-10-20T03:13:12.867Z,999.53
2022-10-20T03:14:13.887Z,999.53
2022-10-20T03:15:14.081Z,999.53
2022-10-20T03:16:13.270Z,999.55
2022-10-20T03:17:13.200Z,999.51
2022-10-20T03:18:13.040Z,999.55
2022-10-20T03:19:13.222Z,999.49
2022-10-20T03:20:13.205Z,999.48
2022-10-20T03:21:13.538Z,999.42
2022-10-20T03:22:13.499Z,999.43
2022-10-20T03:23:15.214Z,999.37
2022-10-20T03:24:14.176Z,999.40
2022-10-20T03:25:13.060Z,999.36
2022-10-20T03:26:12.918Z,999.38
2022-10-20T03:27:12.928Z,999.37
2022-10-20T03:28:12.830Z,999.39
2022-10-20T03:29:13.860Z,999.39
2022-10-20T03:30:14.001Z,999.37
2022-10-20T03:31:13.087Z,999.36
2022-10-20T03:32:13.256Z,999.36
2022-10-20T03:33:13.019Z,999.38
2022-10-20T03:34:13.090Z,999.34
2022-10-20T03:35:12.938Z,999.30
2022-10-20T03:36:12.886Z,999.34
2022-10-20T03:37:12.805Z,999.32
2022-10-20T03:38:14.036Z,999.31
2022-10-20T03:39:12.866Z,999.36
2022-10-20T03:40:14.026Z,999.39
2022-10-20T03:41:13.395Z,999.39
2022-10-20T03:42:13.377Z,999.38
2022-10-20T03:43:13.350Z,999.31
2022-10-20T03:44:13.707Z,999.29
2022-10-20T03:45:16.284Z,999.24
2022-10-20T03:46:13.721Z,999.20
2022-10-20T03:47:13.927Z,999.21
2022-10-20T03:48:12.820Z,999.19
2022-10-20T03:49:14.103Z,999.18
2022-10-20T03:50:13.128Z,999.16
2022-10-20T03:51:13.224Z,999.15
2022-10-20T03:52:13.201Z,999.13
2022-10-20T03:53:13.132Z,999.09
2022-10-20T03:54:13.233Z,999.13
2022-10-20T03:55:13.326Z,999.10
2022-10-20T03:56:13.424Z,999.07
2022-10-20T03:57:45.742Z,999.10
2022-10-20T03:58:13.729Z,999.06
2022-10-20T03:59:13.937Z,999.05
2022-10-20T04:00:12.984Z,999.01
2022-10-20T04:01:13.023Z,999.01
2022-10-20T04:02:12.867Z,998.95
2022-10-20T04:03:14.253Z,998.95
2022-10-20T04:04:13.273Z,998.99
2022-10-20T04:05:13.140Z,998.94
2022-10-20T04:06:13.047Z,998.88
2022-10-20T04:07:13.097Z,998.90
2022-10-20T04:08:12.999Z,998.84
2022-10-20T04:09:13.094Z,998.88
2022-10-20T04:10:13.070Z,998.80
2022-10-20T04:11:12.995Z,998.82
2022-10-20T04:12:13.043Z,998.82
2022-10-20T04:13:13.079Z,998.80
2022-10-20T04:14:13.044Z,998.88
2022-10-20T04:15:12.923Z,998.87
2022-10-20T04:16:13.021Z,998.85
2022-10-20T04:17:13.380Z,998.80
2022-10-20T04:18:13.356Z,998.80
2022-10-20T04:19:14.312Z,998.80
2022-10-20T04:20:13.425Z,998.78
2022-10-20T04:21:13.645Z,998.78
2022-10-20T04:22:13.666Z,998.78
2022-10-20T04:23:14.375Z,998.76
2022-10-20T04:24:13.281Z,998.77
2022-10-20T04:25:13.379Z,998.76
2022-10-20T04:26:13.661Z,998.77
2022-10-20T04:27:14.068Z,998.73
2022-10-20T04:28:13.341Z,998.72
2022-10-20T04:29:13.163Z,998.70
2022-10-20T04:30:13.880Z,998.66
2022-10-20T04:31:13.730Z,998.64
2022-10-20T04:32:13.835Z,998.63
2022-10-20T04:33:13.956Z,998.63
2022-10-20T04:34:12.913Z,998.65
2022-10-20T04:35:13.211Z,998.70
2022-10-20T04:36:13.168Z,998.74
2022-10-20T04:37:13.222Z,998.79
2022-10-20T04:38:13.131Z,998.73
2022-10-20T04:39:13.063Z,998.67
2022-10-20T04:40:12.941Z,998.68
2022-10-20T04:41:12.968Z,998.73
2022-10-20T04:42:12.892Z,998.66
2022-10-20T04:43:13.828Z,998.65
2022-10-20T04:44:13.661Z,998.60
2022-10-20T04:45:13.754Z,998.66
2022-10-20T04:46:13.625Z,998.61
2022-10-20T04:47:13.468Z,998.57
2022-10-20T04:48:13.399Z,998.51
2022-10-20T04:49:13.309Z,998.55
2022-10-20T04:50:13.348Z,998.46
2022-10-20T04:51:13.548Z,998.43
2022-10-20T04:52:13.599Z,998.39
2022-10-20T04:53:13.874Z,998.38
2022-10-20T04:54:12.872Z,998.35
2022-10-20T04:55:13.057Z,998.29
2022-10-20T04:56:13.081Z,998.25
2022-10-20T04:57:13.141Z,998.25
2022-10-20T04:58:13.212Z,998.25
2022-10-20T04:59:13.801Z,998.23
2022-10-20T05:00:13.148Z,998.30
2022-10-20T05:01:13.187Z,998.21
2022-10-20T05:02:13.414Z,998.19
2022-10-20T05:03:13.413Z,998.17
2022-10-20T05:04:13.681Z,998.23
2022-10-20T05:05:13.877Z,998.15
2022-10-20T05:06:13.836Z,998.19
2022-10-20T05:07:13.841Z,998.20
2022-10-20T05:08:13.755Z,998.20
2022-10-20T05:09:13.753Z,998.19
2022-10-20T05:10:13.711Z,998.14
2022-10-20T05:11:13.952Z,998.02
2022-10-20T05:12:18.955Z,998.01
2022-10-20T05:13:12.867Z,997.95
2022-10-20T05:14:21.138Z,997.95
2022-10-20T05:15:13.055Z,997.92
2022-10-20T05:16:26.984Z,997.96
2022-10-20T05:17:12.883Z,997.91
2022-10-20T05:18:13.686Z,997.92
2022-10-20T05:19:13.583Z,997.90
2022-10-20T05:20:14.177Z,997.92
2022-10-20T05:21:13.153Z,997.92
2022-10-20T05:22:13.522Z,997.93
2022-10-20T05:23:13.842Z,997.92
2022-10-20T05:24:16.873Z,997.91
2022-10-20T05:25:34.884Z,997.84
2022-10-20T05:26:13.470Z,997.80
2022-10-20T05:27:13.510Z,997.75
2022-10-20T05:28:13.542Z,997.73
2022-10-20T05:29:13.475Z,997.69
2022-10-20T05:30:13.383Z,997.68
2022-10-20T05:31:13.563Z,997.62
2022-10-20T05:32:13.680Z,997.59
2022-10-20T05:33:13.786Z,997.62
2022-10-20T05:34:14.109Z,997.64
2022-10-20T05:35:13.258Z,997.66
2022-10-20T05:36:15.882Z,997.66
2022-10-20T05:37:13.026Z,997.63
2022-10-20T05:38:12.883Z,997.57
2022-10-20T05:39:14.016Z,997.57
2022-10-20T05:40:13.338Z,997.51
2022-10-20T05:41:13.210Z,997.48
2022-10-20T05:42:13.729Z,997.50
2022-10-20T05:43:17.236Z,997.50
2022-10-20T05:44:13.462Z,997.52
2022-10-20T05:45:13.696Z,997.57
2022-10-20T05:46:27.683Z,997.64
2022-10-20T05:47:18.697Z,997.62
2022-10-20T05:48:13.743Z,997.63
2022-10-20T05:49:13.871Z,997.65
2022-10-20T05:50:13.713Z,997.62
2022-10-20T05:51:15.033Z,997.60
2022-10-20T05:52:13.734Z,997.57
2022-10-20T05:53:13.774Z,997.54
2022-10-20T05:54:13.709Z,997.52
2022-10-20T05:55:15.034Z,997.48
2022-10-20T05:56:13.290Z,997.58
2022-10-20T05:57:13.657Z,997.56
2022-10-20T05:58:13.718Z,997.51
2022-10-20T05:59:13.645Z,997.56
2022-10-20T06:00:13.056Z,997.56
2022-10-20T06:01:13.246Z,997.53
2022-10-20T06:02:13.413Z,997.50
2022-10-20T06:03:16.193Z,997.44
2022-10-20T06:04:12.966Z,997.43
2022-10-20T06:05:13.188Z,997.44
2022-10-20T06:06:13.269Z,997.45
2022-10-20T06:07:13.519Z,997.43
2022-10-20T06:08:13.465Z,997.45
2022-10-20T06:09:13.656Z,997.40
2022-10-20T06:10:13.626Z,997.41
2022-10-20T06:11:13.903Z,997.39
2022-10-20T06:12:12.860Z,997.38
2022-10-20T06:13:14.152Z,997.40
2022-10-20T06:14:13.487Z,997.48
2022-10-20T06:15:13.718Z,997.47
2022-10-20T06:16:13.823Z,997.45
2022-10-20T06:17:13.806Z,997.48
2022-10-20T06:18:14.064Z,997.46
2022-10-20T06:19:13.213Z,997.49
2022-10-20T06:20:13.210Z,997.48
2022-10-20T06:21:13.313Z,997.48
2022-10-20T06:22:13.248Z,997.58
2022-10-20T06:23:13.307Z,997.58
2022-10-20T06:24:13.358Z,997.60
2022-10-20T06:25:13.283Z,997.62
2022-10-20T06:26:13.612Z,997.54
2022-10-20T06:27:13.559Z,997.57
2022-10-20T06:28:13.488Z,997.54
2022-10-20T06:29:13.593Z,997.45
2022-10-20T06:30:13.852Z,997.43
2022-10-20T06:31:14.249Z,997.50
2022-10-20T06:33:13.406Z,997.45
2022-10-20T06:34:13.622Z,997.55
2022-10-20T06:35:13.963Z,997.51
2022-10-20T06:36:13.225Z,997.50
2022-10-20T06:37:13.389Z,997.54
2022-10-20T06:38:13.704Z,997.54
2022-10-20T06:39:13.950Z,997.55
2022-10-20T06:40:12.836Z,997.50
2022-10-20T06:41:13.683Z,997.57
2022-10-20T06:42:13.504Z,997.59
2022-10-20T06:43:13.605Z,997.60
2022-10-20T06:44:13.704Z,997.58
2022-10-20T06:45:15.628Z,997.69
2022-10-20T06:46:13.852Z,997.68
2022-10-20T06:47:14.117Z,997.73
2022-10-20T06:48:13.063Z,997.69
2022-10-20T06:49:13.105Z,997.73
2022-10-20T06:50:13.185Z,997.69
2022-10-20T06:51:13.257Z,997.68
2022-10-20T06:52:13.226Z,997.64
2022-10-20T06:53:13.173Z,997.65
2022-10-20T06:54:13.047Z,997.64
2022-10-20T06:55:12.979Z,997.65
2022-10-20T06:56:12.968Z,997.62
2022-10-20T06:57:13.057Z,997.66
2022-10-20T06:58:13.127Z,997.61
2022-10-20T06:59:13.139Z,997.61
2022-10-20T07:00:13.031Z,997.57
2022-10-20T07:01:13.049Z,997.56
2022-10-20T07:02:13.121Z,997.52
2022-10-20T07:03:13.805Z,997.55
2022-10-20T07:04:13.892Z,997.52
2022-10-20T07:05:12.865Z,997.55
2022-10-20T07:06:13.793Z,997.55
2022-10-20T07:07:13.649Z,997.49
2022-10-20T07:08:13.867Z,997.53
2022-10-20T07:09:14.111Z,997.56
2022-10-20T07:10:14.541Z,997.53
2022-10-20T07:11:13.404Z,997.48
2022-10-20T07:12:13.315Z,997.50
2022-10-20T07:13:13.424Z,997.49
2022-10-20T07:14:13.797Z,997.51
2022-10-20T07:15:13.911Z,997.50
2022-10-20T07:16:13.083Z,997.58
2022-10-20T07:17:13.410Z,997.62
2022-10-20T07:18:13.655Z,997.65
2022-10-20T07:19:13.929Z,997.59
2022-10-20T07:20:12.853Z,997.62
2022-10-20T07:21:13.992Z,997.59
2022-10-20T07:22:13.695Z,997.63
2022-10-20T07:23:14.301Z,997.64
2022-10-20T07:24:13.461Z,997.59
2022-10-20T07:25:13.459Z,997.65
2022-10-20T07:26:13.798Z,997.69
2022-10-20T07:27:13.869Z,997.63
2022-10-20T07:28:14.225Z,997.62
2022-10-20T07:29:13.573Z,997.64
2022-10-20T07:30:13.547Z,997.66
2022-10-20T07:31:13.548Z,997.59
2022-10-20T07:32:13.471Z,997.65
2022-10-20T07:33:13.822Z,997.64
2022-10-20T07:34:24.977Z,997.55
2022-10-20T07:35:13.018Z,997.65
2022-10-20T07:36:13.631Z,997.61
2022-10-20T07:37:13.804Z,997.58
2022-10-20T07:38:13.699Z,997.48
2022-10-20T07:39:13.606Z,997.53
2022-10-20T07:40:13.651Z,997.54
2022-10-20T07:41:13.519Z,997.49
2022-10-20T07:42:13.411Z,997.54
2022-10-20T07:43:13.623Z,997.57
2022-10-20T07:44:14.170Z,997.52
2022-10-20T07:45:13.278Z,997.55
2022-10-20T07:47:13.106Z,997.55
2022-10-20T07:48:13.600Z,997.63
2022-10-20T07:49:43.971Z,997.58
2022-10-20T07:50:13.647Z,997.63
2022-10-20T07:52:13.674Z,997.68
2022-10-20T07:53:13.731Z,997.62
2022-10-20T07:54:13.579Z,997.65
2022-10-20T07:55:36.637Z,997.63
2022-10-20T07:56:13.662Z,997.67
2022-10-20T07:57:13.994Z,997.64
2022-10-20T07:58:13.123Z,997.68
2022-10-20T07:59:13.410Z,997.73
2022-10-20T08:00:13.649Z,997.72
2022-10-20T08:01:13.921Z,997.67
2022-10-20T08:02:13.158Z,997.65
2022-10-20T08:03:13.255Z,997.64
2022-10-20T08:04:13.158Z,997.57
2022-10-20T08:05:13.268Z,997.52
2022-10-20T08:06:13.237Z,997.59
2022-10-20T08:07:13.618Z,997.51
2022-10-20T08:08:13.718Z,997.47
2022-10-20T08:09:13.702Z,997.42
2022-10-20T08:10:13.741Z,997.45
2022-10-20T08:11:13.755Z,997.43
2022-10-20T08:12:14.100Z,997.42
2022-10-20T08:13:13.166Z,997.43
2022-10-20T08:14:13.410Z,997.39
2022-10-20T08:15:17.039Z,997.37
2022-10-20T08:16:14.236Z,997.36
2022-10-20T08:17:13.192Z,997.32
2022-10-20T08:18:13.934Z,997.36
2022-10-20T08:19:15.262Z,997.32
2022-10-20T08:20:17.802Z,997.30
2022-10-20T08:21:14.020Z,997.24
2022-10-20T08:22:13.213Z,997.26
2022-10-20T08:23:13.151Z,997.19
2022-10-20T08:24:13.034Z,997.19
2022-10-20T08:25:13.090Z,997.12
2022-10-20T08:26:13.066Z,997.15
2022-10-20T08:27:13.161Z,997.08
2022-10-20T08:28:13.268Z,997.06
2022-10-20T08:29:13.358Z,997.06
2022-10-20T08:30:23.324Z,997.09
2022-10-20T08:31:13.657Z,997.06
2022-10-20T08:32:13.740Z,997.14
2022-10-20T08:33:13.756Z,997.25
2022-10-20T08:34:14.174Z,997.32
2022-10-20T08:35:13.045Z,997.32
2022-10-20T08:36:13.246Z,997.33
2022-10-20T08:37:13.548Z,997.35
2022-10-20T08:38:13.536Z,997.28
2022-10-20T08:39:13.709Z,997.21
2022-10-20T08:40:13.649Z,997.21
2022-10-20T08:41:13.587Z,997.19
2022-10-20T08:42:13.943Z,997.22
2022-10-20T08:43:13.436Z,997.14
2022-10-20T08:44:13.749Z,997.12
2022-10-20T08:45:14.018Z,997.06
2022-10-20T08:46:13.076Z,997.10
2022-10-20T08:47:13.268Z,996.99
2022-10-20T08:48:13.337Z,997.04
2022-10-20T08:49:13.265Z,997.04
2022-10-20T08:50:13.187Z,997.00
2022-10-20T08:51:13.143Z,997.03
2022-10-20T08:52:13.157Z,997.07
2022-10-20T08:53:13.182Z,997.05
2022-10-20T08:54:13.312Z,997.04
2022-10-20T08:55:13.411Z,996.94
2022-10-20T08:56:13.488Z,997.07
2022-10-20T08:57:13.881Z,997.07
2022-10-20T08:58:13.846Z,997.11
2022-10-20T08:59:13.756Z,997.08
2022-10-20T09:00:13.936Z,997.15
2022-10-20T09:01:18.333Z,997.06
2022-10-20T09:02:13.499Z,997.08
2022-10-20T09:03:13.676Z,997.08
2022-10-20T09:04:13.961Z,997.08
2022-10-20T09:05:15.362Z,997.09
2022-10-20T09:06:13.583Z,997.15
2022-10-20T09:07:13.983Z,997.11
2022-10-20T09:08:13.015Z,997.13
2022-10-20T09:09:13.204Z,997.10
2022-10-20T09:10:13.615Z,997.15
2022-10-20T09:11:13.729Z,997.10
2022-10-20T09:12:14.014Z,997.17
2022-10-20T09:13:18.505Z,997.13
2022-10-20T09:15:18.766Z,997.07
2022-10-20T09:16:22.100Z,997.09
2022-10-20T09:17:13.898Z,997.04
2022-10-20T09:18:13.224Z,997.03
2022-10-20T09:19:13.405Z,996.99
2022-10-20T09:20:13.479Z,997.00
2022-10-20T09:21:13.525Z,997.05
2022-10-20T09:22:13.893Z,997.05
2022-10-20T09:23:35.274Z,997.09
2022-10-20T09:24:13.552Z,997.09
2022-10-20T09:25:14.077Z,997.11
2022-10-20T09:26:24.778Z,997.13
2022-10-20T09:27:13.999Z,997.13
2022-10-20T09:28:13.209Z,997.07
2022-10-20T09:29:14.484Z,997.12
2022-10-20T09:30:13.593Z,997.14
2022-10-20T09:31:13.856Z,997.13
2022-10-20T09:32:44.572Z,997.15
2022-10-20T09:33:13.537Z,997.12
2022-10-20T09:34:13.640Z,997.19
2022-10-20T09:35:19.767Z,997.22
2022-10-20T09:36:14.239Z,997.22
2022-10-20T09:37:13.632Z,997.17
2022-10-20T09:38:13.725Z,997.18
2022-10-20T09:39:13.795Z,997.11
2022-10-20T09:40:14.190Z,997.11
2022-10-20T09:41:13.325Z,997.11
2022-10-20T09:42:13.455Z,997.08
2022-10-20T09:43:13.632Z,997.05
2022-10-20T09:44:13.699Z,997.08
2022-10-20T09:45:14.574Z,997.11
2022-10-20T09:46:13.744Z,997.07
2022-10-20T09:47:13.843Z,997.08
2022-10-20T09:48:13.862Z,997.16
2022-10-20T09:49:14.346Z,997.12
2022-10-20T09:50:13.726Z,997.14
2022-10-20T09:52:13.035Z,997.07
2022-10-20T09:53:23.330Z,996.96
2022-10-20T09:54:13.466Z,996.97
2022-10-20T09:55:13.824Z,996.96
2022-10-20T09:56:19.266Z,997.00
2022-10-20T09:57:13.514Z,996.91
2022-10-20T09:58:17.108Z,996.88
2022-10-20T09:59:13.542Z,996.86
2022-10-20T10:01:13.298Z,996.91
2022-10-20T10:02:13.384Z,996.89
2022-10-20T10:03:13.691Z,996.83
2022-10-20T10:04:13.723Z,996.85
2022-10-20T10:05:13.996Z,996.92
2022-10-20T10:06:13.066Z,996.93
2022-10-20T10:07:13.049Z,996.90
2022-10-20T10:08:12.910Z,996.94
2022-10-20T10:09:13.185Z,996.97
2022-10-20T10:10:13.263Z,996.94
2022-10-20T10:11:13.664Z,996.85
2022-10-20T10:12:13.723Z,996.83
2022-10-20T10:13:13.724Z,996.64
2022-10-20T10:14:15.098Z,996.63
2022-10-20T10:15:13.263Z,996.67
2022-10-20T10:16:13.428Z,996.69
2022-10-20T10:17:13.687Z,996.65
2022-10-20T10:18:13.865Z,996.65
2022-10-20T10:20:12.833Z,996.76
2022-10-20T10:21:13.883Z,996.70
2022-10-20T10:22:12.776Z,996.64
2022-10-20T10:23:14.064Z,996.69
2022-10-20T10:24:13.184Z,996.55
2022-10-20T10:25:18.154Z,996.58
2022-10-20T10:26:13.035Z,996.58
2022-10-20T10:27:13.277Z,996.57
2022-10-20T10:28:13.402Z,996.54
2022-10-20T10:29:27.300Z,996.58
2022-10-20T10:30:13.319Z,996.58
2022-10-20T10:31:13.375Z,996.61
2022-10-20T10:32:13.327Z,996.64
2022-10-20T10:33:13.220Z,996.67
2022-10-20T10:34:13.007Z,996.68
2022-10-20T10:35:12.908Z,996.75
2022-10-20T10:36:13.482Z,996.74
2022-10-20T10:37:13.722Z,996.79
2022-10-20T10:38:13.868Z,996.84
2022-10-20T10:39:13.798Z,996.85
2022-10-20T10:40:13.637Z,996.86
2022-10-20T10:41:13.549Z,996.87
2022-10-20T10:42:13.911Z,996.86
2022-10-20T10:43:13.150Z,996.91
2022-10-20T10:44:13.539Z,996.87
2022-10-20T10:45:13.556Z,996.88
2022-10-20T10:46:13.645Z,996.89
2022-10-20T10:47:13.869Z,996.90
2022-10-20T10:48:13.830Z,996.90
2022-10-20T10:49:13.926Z,996.88
2022-10-20T10:50:13.262Z,996.89
2022-10-20T10:51:13.670Z,996.91
2022-10-20T10:52:14.015Z,996.99
2022-10-20T10:53:13.451Z,997.00
2022-10-20T10:54:13.472Z,997.04
2022-10-20T10:55:21.230Z,997.01
2022-10-20T10:56:13.845Z,997.05
2022-10-20T10:57:13.970Z,997.05
2022-10-20T10:59:13.867Z,996.98
2022-10-20T11:00:13.858Z,996.95
2022-10-20T11:01:12.863Z,996.90
2022-10-20T11:02:12.989Z,996.88
2022-10-20T11:03:13.518Z,996.91
2022-10-20T11:04:13.563Z,996.89
2022-10-20T11:05:13.527Z,996.84
2022-10-20T11:06:13.441Z,996.83
2022-10-20T11:07:13.762Z,996.80
2022-10-20T11:08:13.625Z,996.78
2022-10-20T11:09:14.061Z,996.77
2022-10-20T11:10:13.246Z,996.72
2022-10-20T11:11:13.362Z,996.74
2022-10-20T11:12:13.391Z,996.79
2022-10-20T11:13:13.545Z,996.77
2022-10-20T11:14:13.416Z,996.75
2022-10-20T11:15:13.594Z,996.77
2022-10-20T11:16:13.953Z,996.76
2022-10-20T11:17:13.161Z,996.76
2022-10-20T11:18:13.324Z,996.63
2022-10-20T11:19:13.432Z,996.60
2022-10-20T11:20:14.486Z,996.58
2022-10-20T11:21:13.740Z,996.59
2022-10-20T11:22:14.772Z,996.55
2022-10-20T11:23:13.379Z,996.53
2022-10-20T11:24:13.400Z,996.51
2022-10-20T11:25:13.491Z,996.51
2022-10-20T11:26:13.354Z,996.49
2022-10-20T11:27:13.393Z,996.47
2022-10-20T11:28:13.551Z,996.48
2022-10-20T11:29:13.492Z,996.50
2022-10-20T11:30:13.381Z,996.50
2022-10-20T11:31:13.318Z,996.53
2022-10-20T11:32:13.303Z,996.51
2022-10-20T11:33:14.538Z,996.51
2022-10-20T11:34:13.877Z,996.50
2022-10-20T11:35:13.796Z,996.49
2022-10-20T11:36:13.868Z,996.45
2022-10-20T11:37:13.780Z,996.40
2022-10-20T11:38:14.017Z,996.36
2022-10-20T11:39:13.292Z,996.35
2022-10-20T11:40:13.408Z,996.37
2022-10-20T11:41:13.289Z,996.31
2022-10-20T11:42:13.214Z,996.31
2022-10-20T11:43:13.292Z,996.35
2022-10-20T11:44:13.258Z,996.37
2022-10-20T11:45:13.091Z,996.35
2022-10-20T11:46:13.172Z,996.30
2022-10-20T11:47:13.157Z,996.28
2022-10-20T11:48:13.485Z,996.24
2022-10-20T11:49:13.520Z,996.26
2022-10-20T11:50:13.618Z,996.27
2022-10-20T11:51:13.532Z,996.30
2022-10-20T11:52:13.502Z,996.30
2022-10-20T11:53:13.534Z,996.34
2022-10-20T11:54:13.583Z,996.31
2022-10-20T11:55:13.671Z,996.30
2022-10-20T11:56:13.741Z,996.33
2022-10-20T11:57:13.934Z,996.34
2022-10-20T11:58:13.369Z,996.37
2022-10-20T11:59:14.346Z,996.39
2022-10-20T12:00:13.227Z,996.42
2022-10-20T12:01:47.095Z,996.38
2022-10-20T12:02:13.219Z,996.35
2022-10-20T12:03:13.337Z,996.36
2022-10-20T12:04:13.399Z,996.44
2022-10-20T12:05:13.572Z,996.47
2022-10-20T12:06:13.512Z,996.45
2022-10-20T12:07:14.235Z,996.40
2022-10-20T12:08:28.660Z,996.42
2022-10-20T12:09:13.340Z,996.38
2022-10-20T12:10:14.720Z,996.37
2022-10-20T12:11:14.056Z,996.44
2022-10-20T12:12:12.953Z,996.49
2022-10-20T12:13:13.369Z,996.51
2022-10-20T12:14:13.751Z,996.51
2022-10-20T12:15:17.469Z,996.46
2022-10-20T12:16:13.887Z,996.47
2022-10-20T12:17:14.082Z,996.51
2022-10-20T12:18:18.313Z,996.57
2022-10-20T12:19:13.646Z,996.57
2022-10-20T12:20:13.610Z,996.55
2022-10-20T12:21:13.656Z,996.59
2022-10-20T12:22:14.113Z,996.59
2022-10-20T12:23:13.149Z,996.55
2022-10-20T12:24:13.435Z,996.57
2022-10-20T12:25:13.370Z,996.59
2022-10-20T12:26:13.248Z,996.58
2022-10-20T12:27:13.387Z,996.55
2022-10-20T12:28:13.418Z,996.56
2022-10-20T12:29:13.434Z,996.57
2022-10-20T12:30:13.925Z,996.58
2022-10-20T12:31:13.107Z,996.57
2022-10-20T12:32:13.233Z,996.57